Time;durP1;ratioP1;P1;durP2;ratioP2;P2;SDS_P1;SDS_P2;PMS_P1;PMS_P2;Temp;Humidity;BMP_temperature;BMP_pressure;BME280_temperature;BME280_humidity;BME280_pressure;Samples;Min_cycle;Max_cycle;Signal;HPM_P1;HPM_P2
2021/12/23 00:01:51;;;;;;;3.85;3.10;;;;;;;5.55;43.66;100548.58;1824608;78;21049;-58
2021/12/23 00:04:18;;;;;;;5.47;2.87;;;;;;;5.55;43.64;100548.58;1836577;78;21523;-58
2021/12/23 00:06:44;;;;;;;3.25;2.95;;;;;;;5.54;43.61;100550.00;1778606;80;21053;-57
2021/12/23 00:09:11;;;;;;;3.83;3.17;;;;;;;5.54;43.61;100558.74;1777413;80;21033;-58
2021/12/23 00:11:38;;;;;;;3.62;3.17;;;;;;;5.54;43.63;100550.00;1816015;78;21037;-56
2021/12/23 00:14:07;;;;;;;3.50;2.98;;;;;;;5.53;43.60;100550.49;1819610;78;21097;-57
2021/12/23 00:16:47;;;;;;;4.40;3.52;;;;;;;5.53;43.57;100555.76;1808837;78;21043;-57
2021/12/23 00:24:41;;;;;;;3.83;3.05;;;;;;;5.51;43.55;100556.36;1816788;78;21084;-56
2021/12/23 00:27:08;;;;;;;3.42;2.80;;;;;;;5.51;43.54;100562.95;1831289;78;22301;-57
2021/12/23 00:29:34;;;;;;;4.55;2.77;;;;;;;5.50;43.53;100562.56;1824995;78;20995;-58
2021/12/23 00:32:05;;;;;;;4.17;3.22;;;;;;;5.49;43.52;100559.59;1805413;78;21063;-57
2021/12/23 00:34:30;;;;;;;3.92;2.80;;;;;;;5.48;43.52;100562.67;1817953;78;20994;-57
2021/12/23 00:36:58;;;;;;;3.47;2.27;;;;;;;5.48;43.49;100567.95;1820910;78;21513;-58
2021/12/23 00:39:26;;;;;;;3.85;2.80;;;;;;;5.48;43.49;100567.95;1824759;78;21055;-58
2021/12/23 00:41:54;;;;;;;2.95;2.65;;;;;;;5.47;43.48;100570.23;1820098;78;21035;-57
2021/12/23 00:44:21;;;;;;;3.17;2.85;;;;;;;5.47;43.46;100572.87;1831780;78;21038;-57
2021/12/23 00:46:48;;;;;;;4.50;3.10;;;;;;;5.47;43.46;100569.41;1834625;78;21019;-58
2021/12/23 00:49:16;;;;;;;3.83;2.98;;;;;;;5.46;43.45;100565.08;1832808;78;21016;-57
2021/12/23 00:51:42;;;;;;;3.02;2.37;;;;;;;5.46;43.43;100570.34;1826816;78;21075;-59
2021/12/23 00:54:11;;;;;;;4.22;2.70;;;;;;;5.46;43.45;100571.66;1826622;78;20986;-57
2021/12/23 00:56:38;;;;;;;3.42;2.90;;;;;;;5.45;43.42;100572.64;1822747;78;21061;-57
2021/12/23 00:59:09;;;;;;;3.15;2.62;;;;;;;5.45;43.40;100576.10;1815547;78;21035;-56
2021/12/23 01:01:36;;;;;;;3.87;2.80;;;;;;;5.46;43.38;100577.77;1817099;78;21018;-58
2021/12/23 01:04:03;;;;;;;3.40;2.95;;;;;;;5.45;43.36;100571.31;1827379;78;21135;-57
2021/12/23 01:06:29;;;;;;;3.40;2.92;;;;;;;5.45;43.36;100571.31;1826159;78;21502;-56
2021/12/23 01:08:55;;;;;;;3.83;2.87;;;;;;;5.45;43.34;100572.64;1823255;78;21033;-58
2021/12/23 01:11:24;;;;;;;3.22;2.65;;;;;;;5.45;43.32;100573.95;1832562;78;21068;-58
2021/12/23 01:14:25;;;;;;;2.90;2.33;;;;;;;5.44;43.31;100567.81;1832084;78;20986;-57
2021/12/23 01:16:48;;;;;;;2.67;2.15;;;;;;;5.44;43.29;100570.45;1819479;78;21153;-59
2021/12/23 01:18:57;;;;;;;3.52;2.80;;;;;;;5.45;43.29;100571.31;1827021;78;21041;-57
2021/12/23 01:21:23;;;;;;;3.80;3.00;;;;;;;5.44;43.28;100566.98;1823729;78;21010;-56
2021/12/23 01:23:52;;;;;;;3.08;2.60;;;;;;;5.43;43.28;100568.79;1825863;78;21042;-56
2021/12/23 01:26:22;;;;;;;3.30;2.75;;;;;;;5.43;43.25;100574.55;1831748;78;21066;-57
2021/12/23 01:28:52;;;;;;;3.75;2.70;;;;;;;5.43;43.24;100574.06;1818675;78;21113;-58
2021/12/23 01:31:22;;;;;;;3.72;2.70;;;;;;;5.41;43.26;100566.75;1830661;78;21053;-57
2021/12/23 01:33:48;;;;;;;3.72;2.87;;;;;;;5.41;43.23;100573.34;1819137;78;20980;-58
2021/12/23 01:36:15;;;;;;;2.80;2.50;;;;;;;5.41;43.22;100575.11;1818653;78;21136;-58
2021/12/23 01:38:41;;;;;;;3.92;2.55;;;;;;;5.40;43.21;100567.69;1829224;77;21538;-57
2021/12/23 01:41:09;;;;;;;3.75;2.90;;;;;;;5.40;43.20;100565.54;1833929;77;21064;-57
2021/12/23 01:43:36;;;;;;;3.77;2.72;;;;;;;5.40;43.21;100569.01;1824131;77;20998;-58
2021/12/23 01:46:02;;;;;;;3.60;2.60;;;;;;;5.40;43.18;100571.64;1830696;77;21553;-57
2021/12/23 01:48:30;;;;;;;3.85;2.50;;;;;;;5.40;43.17;100569.49;1822705;77;21051;-57
2021/12/23 01:50:56;;;;;;;4.22;2.87;;;;;;;5.39;43.16;100575.25;1822439;77;21015;-57
2021/12/23 01:53:23;;;;;;;3.92;3.00;;;;;;;5.39;43.14;100573.93;1818574;77;21749;-58
2021/12/23 01:55:49;;;;;;;2.85;2.30;;;;;;;5.39;43.14;100574.39;1831271;77;21072;-59
2021/12/23 01:58:16;;;;;;;2.70;2.50;;;;;;;5.39;43.11;100578.34;1836642;77;21018;-58
2021/12/23 02:00:46;;;;;;;4.22;2.52;;;;;;;5.38;43.12;100581.45;1834254;77;21518;-58
2021/12/23 02:03:13;;;;;;;2.75;2.27;;;;;;;5.38;43.10;100580.63;1831863;77;21260;-58
2021/12/23 02:05:40;;;;;;;3.45;3.08;;;;;;;5.25;43.08;100564.42;1824729;77;21141;-57
2021/12/23 02:08:07;;;;;;;4.28;2.77;;;;;;;5.38;43.07;100583.26;1846308;77;21021;-57
2021/12/23 02:10:35;;;;;;;3.25;2.70;;;;;;;5.38;43.07;100581.95;1839792;77;21955;-57
2021/12/23 02:13:02;;;;;;;3.42;2.80;;;;;;;5.37;43.05;100586.37;1833489;77;20990;-56
2021/12/23 02:15:30;;;;;;;3.67;2.95;;;;;;;5.36;43.03;100583.37;1844849;77;21142;-57
2021/12/23 02:17:57;;;;;;;3.27;2.90;;;;;;;5.37;43.02;100589.02;1827179;77;21173;-56
2021/12/23 02:20:32;;;;;;;3.90;2.90;;;;;;;5.37;43.04;100589.02;1793351;79;21558;-57
2021/12/23 02:22:59;;;;;;;4.03;2.90;;;;;;;5.37;43.00;100590.78;1780818;79;21046;-57
2021/12/23 02:25:25;;;;;;;3.08;2.52;;;;;;;5.37;43.02;100589.47;1768697;80;21045;-56
2021/12/23 02:27:53;;;;;;;3.35;2.85;;;;;;;5.36;43.00;100591.76;1766385;79;21074;-56
2021/12/23 02:30:27;;;;;;;3.30;2.85;;;;;;;5.35;42.99;100585.66;1774784;80;21487;-58
2021/12/23 02:32:54;;;;;;;;;;;;;;;5.34;42.97;100581.81;1788419;79;21466;-56
2021/12/23 02:35:22;;;;;;;3.00;2.70;;;;;;;5.34;42.97;100577.86;1748215;81;20143;-57
2021/12/23 02:37:49;;;;;;;3.85;3.12;;;;;;;5.30;42.99;100580.70;1754414;80;20987;-56
2021/12/23 02:40:31;;;;;;;4.20;3.27;;;;;;;5.30;42.99;100578.56;1752123;80;21573;-57
2021/12/23 02:43:10;;;;;;;4.10;3.25;;;;;;;5.30;42.98;100578.56;1815418;78;22251;-57
2021/12/23 02:45:39;;;;;;;4.67;3.30;;;;;;;5.30;42.97;100575.92;1782223;78;21477;-58
2021/12/23 02:48:16;;;;;;;3.75;2.83;;;;;;;5.28;42.96;100574.71;1802615;78;21041;-58
2021/12/23 02:50:47;;;;;;;3.80;3.00;;;;;;;5.28;42.96;100579.98;1804305;78;21064;-57
2021/12/23 02:53:15;;;;;;;4.05;2.92;;;;;;;5.27;42.97;100588.86;1798304;78;21422;-57
2021/12/23 02:55:43;;;;;;;3.80;3.40;;;;;;;5.26;42.94;100575.30;1806325;78;21145;-56
2021/12/23 02:58:10;;;;;;;3.40;3.10;;;;;;;5.26;42.94;100572.67;1743419;82;21472;-57
2021/12/23 03:00:39;;;;;;;3.67;3.05;;;;;;;5.26;42.93;100572.67;1816311;78;21101;-57
2021/12/23 03:03:06;;;;;;;3.40;3.08;;;;;;;5.25;42.92;100574.95;1746969;82;21054;-56
2021/12/23 03:05:32;;;;;;;3.37;2.92;;;;;;;5.25;42.92;100581.55;1802413;78;21028;-57
2021/12/23 03:08:00;;;;;;;4.12;3.00;;;;;;;5.25;42.91;100578.91;1814608;78;21230;-57
2021/12/23 03:10:26;;;;;;;3.45;3.15;;;;;;;5.26;42.89;100581.89;1789273;78;21033;-57
2021/12/23 03:12:53;;;;;;;3.33;3.02;;;;;;;5.15;42.89;100568.67;1813849;78;21033;-59
2021/12/23 03:15:20;;;;;;;4.30;3.10;;;;;;;5.25;42.86;100588.13;1818092;78;21487;-58
2021/12/23 03:17:46;;;;;;;3.67;2.90;;;;;;;5.26;42.85;100590.28;1810885;78;21055;-57
2021/12/23 03:20:13;;;;;;;3.37;3.08;;;;;;;5.26;42.83;100588.48;1797965;78;21864;-58
2021/12/23 03:22:40;;;;;;;4.12;3.20;;;;;;;5.25;42.82;100596.03;1787127;78;20980;-57
2021/12/23 03:25:07;;;;;;;4.20;3.58;;;;;;;5.24;42.79;100586.44;1793833;78;21073;-56
2021/12/23 03:27:34;;;;;;;3.67;2.67;;;;;;;5.24;42.79;100590.39;1744601;82;21109;-57
2021/12/23 03:30:01;;;;;;;3.58;3.08;;;;;;;5.25;42.76;100584.63;1747564;81;21502;-59
2021/12/23 03:32:27;;;;;;;3.98;3.17;;;;;;;5.24;42.76;100583.80;1811669;78;21153;-57
2021/12/23 03:34:54;;;;;;;3.12;2.67;;;;;;;5.23;42.73;100586.05;1744878;81;21510;-56
2021/12/23 03:37:21;;;;;;;3.92;3.17;;;;;;;5.22;42.72;100583.08;1817419;78;21015;-57
2021/12/23 03:39:51;;;;;;;3.52;3.02;;;;;;;5.21;42.70;100585.33;1811483;77;20982;-57
2021/12/23 03:42:15;;;;;;;4.28;3.22;;;;;;;5.21;42.71;100589.28;1803527;79;21080;-57
2021/12/23 03:44:42;;;;;;;4.22;3.10;;;;;;;5.21;42.70;100582.70;1804289;79;21788;-57
2021/12/23 03:47:08;;;;;;;3.80;3.30;;;;;;;5.20;42.69;100584.98;1799787;79;20974;-57
2021/12/23 03:49:35;;;;;;;4.40;3.00;;;;;;;5.19;42.66;100589.87;1799132;79;21035;-57
2021/12/23 03:52:03;;;;;;;3.70;3.37;;;;;;;5.19;42.66;100592.51;1788843;79;20988;-57
2021/12/23 03:54:30;;;;;;;3.75;3.25;;;;;;;5.18;42.66;100594.80;1779467;79;20974;-56
2021/12/23 03:56:56;;;;;;;4.35;3.12;;;;;;;5.17;42.65;100598.37;1810950;79;21070;-57
2021/12/23 03:59:23;;;;;;;3.85;3.25;;;;;;;5.16;42.62;100587.94;1797835;79;21529;-57
2021/12/23 04:01:49;;;;;;;4.50;3.33;;;;;;;5.16;42.65;100594.52;1784822;79;21035;-57
2021/12/23 04:04:16;;;;;;;3.12;2.83;;;;;;;5.15;42.61;100592.38;1775719;79;21012;-57
2021/12/23 04:06:42;;;;;;;4.05;2.87;;;;;;;5.15;42.61;100599.45;1803022;79;21450;-57
2021/12/23 04:09:09;;;;;;;3.33;2.92;;;;;;;5.14;42.61;100605.20;1797052;79;21060;-56
2021/12/23 04:11:37;;;;;;;3.52;3.20;;;;;;;5.10;42.60;100599.31;1791176;79;21041;-57
2021/12/23 04:14:03;;;;;;;3.22;2.92;;;;;;;5.11;42.59;100600.97;1803279;79;21585;-57
2021/12/23 04:16:31;;;;;;;3.62;3.33;;;;;;;5.12;42.59;100616.32;1790534;79;21608;-57
2021/12/23 04:18:57;;;;;;;4.08;3.05;;;;;;;5.10;42.56;100612.96;1743485;82;21089;-58
2021/12/23 04:21:23;;;;;;;3.92;3.40;;;;;;;5.09;42.55;100618.68;1802936;79;21524;-58
2021/12/23 04:23:50;;;;;;;3.05;2.75;;;;;;;5.09;42.56;100621.80;1780832;80;21000;-57
2021/12/23 04:26:16;;;;;;;4.08;3.15;;;;;;;5.08;42.55;100621.42;1796428;79;21061;-58
2021/12/23 04:28:46;;;;;;;3.62;2.98;;;;;;;5.06;42.56;100620.69;1787228;79;21010;-57
2021/12/23 04:31:17;;;;;;;3.25;2.95;;;;;;;5.07;42.56;100623.22;1772346;80;21366;-57
2021/12/23 04:33:45;;;;;;;3.92;2.65;;;;;;;5.05;42.56;100617.71;1807640;79;21714;-57
2021/12/23 04:36:11;;;;;;;4.20;3.40;;;;;;;5.05;42.53;100616.39;1794161;79;21013;-57
2021/12/23 04:38:39;;;;;;;5.22;3.22;;;;;;;5.03;42.52;100615.66;1798410;79;21535;-56
2021/12/23 04:41:05;;;;;;;4.25;3.55;;;;;;;5.03;42.51;100616.98;1797029;77;21001;-57
2021/12/23 04:43:32;;;;;;;3.17;2.77;;;;;;;5.02;42.48;100621.87;1805450;78;21506;-57
2021/12/23 04:45:59;;;;;;;3.25;2.95;;;;;;;5.02;42.50;100615.28;1792801;78;21131;-57
2021/12/23 04:48:26;;;;;;;4.45;3.27;;;;;;;5.01;42.51;100610.98;1782608;78;21084;-57
2021/12/23 04:50:52;;;;;;;4.22;3.55;;;;;;;5.00;42.49;100614.56;1795325;78;21494;-58
2021/12/23 04:53:19;;;;;;;4.50;3.17;;;;;;;5.00;42.51;100609.29;1805539;78;20986;-55
2021/12/23 04:55:45;;;;;;;3.75;3.22;;;;;;;5.00;42.49;100611.92;1813036;78;21088;-58
2021/12/23 04:58:12;;;;;;;5.25;3.50;;;;;;;4.98;42.48;100613.83;1805422;78;21530;-56
2021/12/23 05:00:38;;;;;;;4.50;3.45;;;;;;;4.99;42.47;100615.53;1813912;78;21045;-56
2021/12/23 05:03:04;;;;;;;5.90;4.15;;;;;;;4.97;42.46;100612.16;1810395;78;20971;-56
2021/12/23 05:05:31;;;;;;;3.60;3.12;;;;;;;4.98;42.46;100616.46;1800498;78;21509;-57
2021/12/23 05:07:57;;;;;;;4.00;3.27;;;;;;;4.96;42.44;100620.52;1804759;78;21032;-57
2021/12/23 05:10:25;;;;;;;4.03;3.20;;;;;;;4.96;42.42;100615.73;1796348;78;21131;-57
2021/12/23 05:12:52;;;;;;;4.00;3.17;;;;;;;4.95;42.43;100622.80;1809210;78;21537;-57
2021/12/23 05:15:19;;;;;;;4.03;3.20;;;;;;;4.96;42.42;100625.78;1800618;78;21005;-57
2021/12/23 05:17:47;;;;;;;3.92;3.52;;;;;;;4.95;42.41;100619.34;1799056;78;20986;-57
2021/12/23 05:20:16;;;;;;;4.55;3.33;;;;;;;4.94;42.40;100619.79;1812975;78;21041;-56
2021/12/23 05:22:44;;;;;;;4.45;3.35;;;;;;;4.92;42.41;100618.61;1812883;78;21180;-57
2021/12/23 05:25:10;;;;;;;4.42;3.25;;;;;;;4.91;42.41;100618.23;1788946;78;21054;-57
2021/12/23 05:27:38;;;;;;;5.35;3.90;;;;;;;4.90;42.38;100613.89;1806218;78;21023;-57
2021/12/23 05:30:07;;;;;;;4.03;3.45;;;;;;;4.89;42.40;100617.50;1812824;78;21029;-57
2021/12/23 05:32:34;;;;;;;5.42;3.67;;;;;;;4.89;42.37;100615.35;1798188;78;21065;-57
2021/12/23 05:35:01;;;;;;;4.53;3.47;;;;;;;4.88;42.37;100617.12;1810030;78;22019;-58
2021/12/23 05:37:27;;;;;;;4.17;3.67;;;;;;;4.87;42.38;100616.77;1799530;78;21059;-56
2021/12/23 05:39:54;;;;;;;3.80;3.10;;;;;;;4.86;42.37;100629.55;1798509;78;21069;-57
2021/12/23 05:42:20;;;;;;;5.28;3.35;;;;;;;4.86;42.35;100626.92;1814983;78;21463;-57
2021/12/23 05:44:46;;;;;;;4.70;3.55;;;;;;;4.85;42.34;100631.84;1812571;78;21049;-57
2021/12/23 05:47:13;;;;;;;4.33;3.70;;;;;;;4.84;42.35;100637.20;1810337;77;21069;-57
2021/12/23 05:49:39;;;;;;;4.42;3.70;;;;;;;4.84;42.34;100636.72;1810613;78;21569;-57
2021/12/23 05:52:05;;;;;;;4.10;3.45;;;;;;;4.83;42.34;100642.95;1816094;77;21036;-57
2021/12/23 05:54:33;;;;;;;5.35;3.95;;;;;;;4.82;42.35;100639.94;1817995;78;20997;-56
2021/12/23 05:57:02;;;;;;;6.10;3.60;;;;;;;4.81;42.33;100643.54;1809454;78;21038;-58
2021/12/23 05:59:33;;;;;;;3.90;3.25;;;;;;;4.80;42.33;100643.16;1813523;78;21158;-57
2021/12/23 06:02:00;;;;;;;5.17;3.70;;;;;;;4.80;42.31;100647.11;1814702;78;21033;-58
2021/12/23 06:04:26;;;;;;;4.55;3.80;;;;;;;4.79;42.34;100649.39;1811796;77;20966;-57
2021/12/23 06:06:52;;;;;;;4.47;3.45;;;;;;;4.78;42.32;100644.23;1817164;78;20982;-57
2021/12/23 06:09:19;;;;;;;3.83;3.42;;;;;;;4.78;42.31;100647.70;1806705;77;21006;-57
2021/12/23 06:11:46;;;;;;;5.08;4.12;;;;;;;4.78;42.30;100646.38;1803502;78;21148;-57
2021/12/23 06:14:13;;;;;;;4.55;3.50;;;;;;;4.77;42.30;100648.66;1812890;78;21018;-55
2021/12/23 06:16:39;;;;;;;4.35;3.70;;;;;;;4.77;42.29;100649.98;1811380;78;20998;-58
2021/12/23 06:19:06;;;;;;;5.90;4.08;;;;;;;4.78;42.29;100652.96;1811158;77;21106;-59
2021/12/23 06:21:33;;;;;;;4.72;3.95;;;;;;;4.77;42.28;100652.61;1814815;77;21001;-57
2021/12/23 06:23:59;;;;;;;5.72;4.03;;;;;;;4.77;42.28;100643.84;1811725;78;21224;-57
2021/12/23 06:26:26;;;;;;;5.33;4.25;;;;;;;4.77;42.25;100652.61;1817642;77;21482;-57
2021/12/23 06:28:53;;;;;;;4.50;3.70;;;;;;;4.76;42.24;100650.91;1810953;78;21020;-57
2021/12/23 06:31:20;;;;;;;4.47;4.00;;;;;;;4.76;42.25;100658.81;1798175;78;21109;-58
2021/12/23 06:33:48;;;;;;;4.55;3.70;;;;;;;4.76;42.24;100651.39;1813692;77;21013;-57
2021/12/23 06:36:14;;;;;;;4.97;4.37;;;;;;;4.76;42.25;100654.03;1810054;77;21074;-58
2021/12/23 06:38:43;;;;;;;4.62;3.52;;;;;;;4.76;42.23;100654.03;1811075;78;20979;-58
2021/12/23 06:41:10;;;;;;;5.67;4.00;;;;;;;4.76;42.23;100649.59;1831876;77;20998;-59
2021/12/23 06:43:38;;;;;;;4.65;3.80;;;;;;;4.75;42.22;100644.44;1832420;77;21034;-57
2021/12/23 06:46:04;;;;;;;4.70;4.28;;;;;;;4.75;42.22;100640.48;1821759;77;21049;-56
2021/12/23 06:48:32;;;;;;;4.35;3.40;;;;;;;4.76;42.21;100638.23;1831278;77;21126;-58
2021/12/23 06:50:59;;;;;;;4.50;3.67;;;;;;;4.76;42.21;100643.02;1827437;77;22041;-58
2021/12/23 06:53:26;;;;;;;4.65;3.85;;;;;;;4.75;42.82;100646.58;1831741;77;20998;-59
2021/12/23 06:55:55;;;;;;;5.12;4.05;;;;;;;4.76;43.12;100648.77;1822924;77;21583;-58
2021/12/23 06:58:25;;;;;;;4.92;3.45;;;;;;;4.77;43.20;100645.16;1824798;77;20989;-57
2021/12/23 07:00:52;;;;;;;5.00;3.77;;;;;;;4.78;43.18;100650.33;1817972;77;21080;-58
2021/12/23 07:03:20;;;;;;;5.03;4.05;;;;;;;4.79;43.15;100647.21;1836567;77;21052;-58
2021/12/23 07:05:55;;;;;;;5.30;3.92;;;;;;;4.79;43.11;100648.08;1820439;77;21073;-57
2021/12/23 07:08:27;;;;;;;4.00;3.60;;;;;;;4.80;43.06;100644.47;1838689;77;21041;-58
2021/12/23 07:10:45;;;;;;;5.15;3.62;;;;;;;4.81;42.99;100647.48;1832329;77;21126;-58
2021/12/23 07:13:11;;;;;;;5.05;4.10;;;;;;;4.82;42.93;100645.20;1823234;77;21121;-57
2021/12/23 07:15:38;;;;;;;5.50;3.98;;;;;;;4.83;42.89;100653.48;1841913;77;21422;-58
2021/12/23 07:18:06;;;;;;;5.33;3.85;;;;;;;4.84;42.83;100650.37;1825126;77;21000;-58
2021/12/23 07:20:32;;;;;;;4.97;4.20;;;;;;;4.84;42.80;100647.25;1827880;77;21565;-58
2021/12/23 07:23:00;;;;;;;6.12;4.25;;;;;;;4.85;42.74;100650.75;1820731;77;21033;-58
2021/12/23 07:25:27;;;;;;;6.62;4.08;;;;;;;4.86;42.71;100649.78;1819506;77;21953;-59
2021/12/23 07:27:54;;;;;;;6.17;4.70;;;;;;;4.87;42.67;100644.41;1753522;80;21006;-57
2021/12/23 07:30:21;;;;;;;6.33;4.80;;;;;;;4.88;42.63;100649.20;1795846;79;21030;-58
2021/12/23 07:32:49;;;;;;;5.50;4.22;;;;;;;4.89;42.60;100653.05;1766474;80;22077;-58
2021/12/23 07:35:17;;;;;;;5.75;4.58;;;;;;;4.89;42.56;100645.62;1745980;80;21087;-58
2021/12/23 07:37:43;;;;;;;5.22;4.55;;;;;;;4.90;42.53;100646.81;1779881;79;21775;-58
2021/12/23 07:40:16;;;;;;;5.47;4.55;;;;;;;4.90;42.48;100648.61;1793098;79;21213;-60
2021/12/23 07:43:09;;;;;;;5.42;4.40;;;;;;;4.92;42.47;100646.70;1784043;78;21479;-58
2021/12/23 07:45:28;;;;;;;4.72;3.85;;;;;;;4.92;42.45;100640.98;1782087;79;21035;-59
2021/12/23 07:47:55;;;;;;;5.60;4.53;;;;;;;4.92;42.43;100639.67;1788985;79;21026;-57
2021/12/23 07:50:22;;;;;;;4.78;3.90;;;;;;;4.92;42.41;100635.72;1801490;79;21646;-59
2021/12/23 07:52:49;;;;;;;6.37;4.67;;;;;;;4.95;42.39;100644.35;1780871;79;21097;-58
2021/12/23 07:56:10;;;;;;;5.10;4.27;;;;;;;4.99;42.37;100634.80;1877446;76;27705;-59
2021/12/23 07:58:36;;;;;;;5.67;4.20;;;;;;;4.97;42.33;100638.50;1853407;77;20997;-59
2021/12/23 08:01:03;;;;;;;5.62;4.72;;;;;;;4.99;42.31;100644.49;1847204;77;22294;-58
2021/12/23 08:03:29;;;;;;;8.68;4.55;;;;;;;5.00;42.29;100643.53;1853757;77;20993;-61
2021/12/23 08:05:56;;;;;;;6.95;4.47;;;;;;;5.01;42.27;100636.01;1839187;77;21084;-59
2021/12/23 08:08:25;;;;;;;4.85;4.35;;;;;;;5.03;42.22;100632.30;1839465;77;21033;-60
2021/12/23 08:10:51;;;;;;;5.78;4.53;;;;;;;5.03;42.20;100628.84;1840741;77;20948;-60
2021/12/23 08:13:18;;;;;;;6.55;4.83;;;;;;;5.04;42.19;100632.68;1856092;77;23281;-59
2021/12/23 08:15:44;;;;;;;5.92;4.70;;;;;;;5.05;42.17;100634.83;1830913;77;21497;-60
2021/12/23 08:18:10;;;;;;;5.22;4.37;;;;;;;5.06;42.13;100628.59;1837971;77;21576;-58
2021/12/23 08:20:38;;;;;;;6.17;4.62;;;;;;;5.07;42.11;100635.07;1835222;77;21087;-60
2021/12/23 08:23:04;;;;;;;6.33;4.60;;;;;;;5.08;42.10;100626.69;1828213;77;21036;-60
2021/12/23 08:25:31;;;;;;;6.00;4.50;;;;;;;5.09;42.07;100633.66;1809340;77;21116;-60
2021/12/23 08:27:58;;;;;;;6.30;5.12;;;;;;;5.11;42.06;100631.75;1807823;78;21278;-66
2021/12/23 08:30:25;;;;;;;5.67;4.25;;;;;;;5.12;42.04;100628.17;1769357;79;21085;-68
2021/12/23 08:32:52;;;;;;;5.28;4.28;;;;;;;5.15;42.03;100621.83;1782161;78;22259;-66
2021/12/23 08:35:19;;;;;;;6.25;4.72;;;;;;;5.17;42.02;100620.77;1783256;79;21088;-66
2021/12/23 08:37:47;;;;;;;6.15;4.55;;;;;;;5.20;41.97;100617.08;1785684;80;21053;-65
2021/12/23 08:40:17;;;;;;;6.03;4.50;;;;;;;5.23;41.99;100607.62;1764112;80;21434;-66
2021/12/23 08:42:43;;;;;;;5.30;4.28;;;;;;;5.27;41.93;100607.30;1788680;80;21065;-65
2021/12/23 08:45:10;;;;;;;6.33;4.92;;;;;;;5.34;41.92;100606.36;1776874;80;21160;-66
2021/12/23 08:47:36;;;;;;;5.00;4.50;;;;;;;5.40;41.91;100597.16;1774839;80;21029;-66
2021/12/23 08:50:06;;;;;;;5.83;5.08;;;;;;;5.46;41.87;100595.38;1773894;80;21223;-68
2021/12/23 08:52:33;;;;;;;5.90;4.45;;;;;;;5.53;41.85;100595.78;1788188;80;21115;-67
2021/12/23 08:54:59;;;;;;;5.78;4.75;;;;;;;5.61;41.83;100592.09;1791902;80;21016;-67
2021/12/23 08:57:25;;;;;;;6.55;4.97;;;;;;;5.68;41.77;100587.55;1793546;80;21501;-66
2021/12/23 08:59:52;;;;;;;5.45;4.87;;;;;;;5.77;41.72;100587.32;1786293;79;21228;-66
2021/12/23 09:02:18;;;;;;;14.05;8.23;;;;;;;5.84;41.67;100583.75;1788655;80;21089;-66
2021/12/23 09:04:45;;;;;;;17.35;12.45;;;;;;;5.90;42.90;100592.52;1784001;79;21507;-65
2021/12/23 09:07:12;;;;;;;15.38;11.65;;;;;;;5.84;39.06;100586.39;1783041;79;21489;-67
2021/12/23 09:09:39;;;;;;;16.02;12.15;;;;;;;5.60;38.36;100575.89;1786457;80;21030;-66
2021/12/23 09:12:08;;;;;;;15.88;11.50;;;;;;;5.54;39.38;100575.05;1787578;80;21040;-68
2021/12/23 09:14:36;;;;;;;15.85;11.30;;;;;;;5.56;41.61;100571.33;1783383;79;21113;-68
2021/12/23 09:17:03;;;;;;;14.68;10.75;;;;;;;5.64;43.41;100568.11;1784403;79;21077;-66
2021/12/23 09:19:30;;;;;;;14.58;10.15;;;;;;;5.74;44.26;100559.02;1809921;78;21017;-66
2021/12/23 09:21:56;;;;;;;15.03;10.53;;;;;;;5.81;44.80;100563.72;1802467;78;21498;-66
2021/12/23 09:24:23;;;;;;;15.03;10.58;;;;;;;5.89;45.06;100560.48;1783572;79;21048;-66
2021/12/23 09:26:56;;;;;;;16.10;10.90;;;;;;;5.97;45.10;100562.57;1796429;78;21106;-66
2021/12/23 09:32:41;;;;;;;15.10;10.35;;;;;;;6.05;45.04;100556.25;1784160;79;20994;-67
2021/12/23 09:34:30;;;;;;;15.98;10.15;;;;;;;6.16;44.78;100545.70;1776238;80;21030;-65
2021/12/23 09:36:57;;;;;;;14.45;10.00;;;;;;;6.21;44.60;100542.69;1786153;79;21030;-67
2021/12/23 09:39:24;;;;;;;13.48;10.23;;;;;;;6.25;44.41;100540.17;1781188;79;21092;-67
2021/12/23 09:41:50;;;;;;;15.03;10.10;;;;;;;6.30;44.24;100543.30;1788871;79;21041;-67
2021/12/23 09:44:16;;;;;;;14.15;9.93;;;;;;;6.34;44.06;100538.13;1797263;78;21533;-67
2021/12/23 09:46:43;;;;;;;14.25;9.15;;;;;;;6.39;43.91;100529.84;1819522;78;21065;-66
2021/12/23 09:49:09;;;;;;;13.62;10.25;;;;;;;6.43;43.74;100528.63;1780876;78;21190;-67
2021/12/23 09:51:36;;;;;;;12.90;10.00;;;;;;;6.46;43.59;100523.95;1801597;78;21658;-67
2021/12/23 09:54:08;;;;;;;14.38;10.08;;;;;;;6.49;43.49;100521.08;1782648;79;21212;-66
2021/12/23 09:56:35;;;;;;;12.82;10.15;;;;;;;6.53;43.35;100520.36;1786956;79;21021;-65
2021/12/23 09:59:05;;;;;;;12.88;9.20;;;;;;;6.56;43.21;100517.94;1787773;79;21685;-69
2021/12/23 10:01:32;;;;;;;13.83;9.70;;;;;;;6.59;43.05;100509.78;1787695;79;21088;-68
2021/12/23 10:03:59;;;;;;;13.38;9.08;;;;;;;6.62;42.93;100503.75;1797536;79;21825;-69
2021/12/23 10:06:26;;;;;;;12.10;8.85;;;;;;;6.66;42.82;100499.92;1789936;79;21029;-67
2021/12/23 10:08:54;;;;;;;13.28;9.68;;;;;;;6.71;42.73;100499.54;1793883;79;21016;-66
2021/12/23 10:11:38;;;;;;;12.58;9.63;;;;;;;6.76;42.63;100485.95;1801085;79;21033;-65
2021/12/23 10:30:51;;;;;;;11.43;9.10;;;;;;;7.37;42.05;100465.50;1796725;77;21150;-65
2021/12/23 10:33:28;;;;;;;12.55;9.50;;;;;;;7.46;41.95;100463.41;1775039;78;22154;-66
2021/12/23 10:38:51;;;;;;;10.60;9.08;;;;;;;7.63;41.80;100454.88;1771250;78;21517;-66
2021/12/23 10:41:22;;;;;;;11.50;9.05;;;;;;;7.72;41.67;100453.72;1770914;78;21111;-66
2021/12/23 10:44:01;;;;;;;12.98;9.55;;;;;;;7.78;41.60;100457.15;1766916;80;22074;-68
2021/12/23 10:46:34;;;;;;;13.38;9.88;;;;;;;7.83;41.54;100456.28;1767642;79;21659;-68
2021/12/23 10:52:07;;;;;;;10.90;8.48;;;;;;;8.00;41.38;100446.39;1768622;79;21079;-68
2021/12/23 11:00:25;;;;;;;12.58;8.18;;;;;;;8.37;41.19;100435.19;1763290;80;21039;-66
2021/12/23 11:03:23;;;;;;;11.57;8.78;;;;;;;8.53;41.14;100439.97;1783826;79;21569;-65
2021/12/23 11:06:12;;;;;;;12.85;8.33;;;;;;;8.65;41.11;100428.30;1777433;80;21045;-66
2021/12/23 11:08:47;;;;;;;11.08;8.18;;;;;;;8.83;41.00;100424.95;1807052;79;21042;-65
2021/12/23 11:39:32;;;;;;;10.03;7.87;;;;;;;9.57;39.81;100400.36;1818770;77;21170;-65
2021/12/23 11:42:10;;;;;;;10.95;8.35;;;;;;;9.55;39.78;100399.67;1846137;77;21213;-65
2021/12/23 11:44:31;;;;;;;8.80;7.35;;;;;;;9.43;39.74;100384.44;1852776;77;21610;-65
2021/12/23 11:47:02;;;;;;;11.43;8.00;;;;;;;9.52;39.74;100403.96;1845436;77;21080;-65
2021/12/23 11:49:27;;;;;;;11.25;8.08;;;;;;;9.50;39.72;100399.27;1843415;77;21087;-65
2021/12/23 11:51:55;;;;;;;10.23;8.43;;;;;;;9.48;39.71;100404.38;1845772;77;21192;-65
2021/12/23 11:54:43;;;;;;;11.10;8.35;;;;;;;9.46;39.66;100411.14;1853342;77;21001;-64
2021/12/23 11:57:17;;;;;;;9.40;7.60;;;;;;;9.42;39.65;100405.29;1842231;77;21033;-64
2021/12/23 12:00:01;;;;;;;8.98;7.40;;;;;;;9.38;39.62;100404.41;1831739;77;21049;-64
2021/12/23 12:02:22;;;;;;;11.05;7.95;;;;;;;9.34;39.59;100399.05;1843197;77;21029;-64
2021/12/23 12:04:49;;;;;;;10.03;7.35;;;;;;;9.29;39.60;100398.17;1843085;77;21055;-66
2021/12/23 12:07:20;;;;;;;11.22;8.03;;;;;;;9.23;39.57;100396.06;1841434;77;21084;-65
2021/12/23 12:10:08;;;;;;;9.65;7.62;;;;;;;9.19;39.56;100407.47;1830585;77;21076;-64
2021/12/23 12:12:37;;;;;;;8.55;7.42;;;;;;;9.14;39.57;100409.70;1819691;77;21607;-66
2021/12/23 12:15:05;;;;;;;8.95;7.45;;;;;;;9.07;39.56;100401.97;1803455;77;21030;-64
2021/12/23 12:17:36;;;;;;;9.93;8.25;;;;;;;9.03;39.58;100404.56;1816902;77;21093;-66
2021/12/23 12:20:43;;;;;;;9.58;8.03;;;;;;;8.98;39.57;100399.70;1839966;77;21037;-65
2021/12/23 12:23:13;;;;;;;9.23;8.08;;;;;;;8.94;39.54;100400.09;1827099;77;21501;-65
2021/12/23 12:25:52;;;;;;;9.73;7.85;;;;;;;8.85;39.51;100399.14;1835764;77;21061;-65
2021/12/23 12:28:27;;;;;;;12.37;8.18;;;;;;;8.78;39.50;100398.86;1816247;77;21021;-67
2021/12/23 12:30:58;;;;;;;10.55;8.45;;;;;;;8.73;39.49;100395.81;1841444;77;21132;-66
2021/12/23 12:33:32;;;;;;;9.35;7.70;;;;;;;8.68;39.51;100403.33;1833597;77;21939;-65
2021/12/23 12:36:04;;;;;;;10.70;8.03;;;;;;;8.61;39.49;100396.91;1821700;77;20994;-65
2021/12/23 12:38:48;;;;;;;9.95;7.85;;;;;;;8.55;39.51;100399.63;1834882;77;21538;-66
2021/12/23 12:41:28;;;;;;;10.37;8.03;;;;;;;8.50;39.52;100401.02;1832781;77;21017;-64
2021/12/23 12:44:05;;;;;;;9.98;7.30;;;;;;;8.45;39.53;100397.47;1838914;76;21138;-67